Weather at Alverca Air Base

Public forecast

Using degrees Celsius for public forecast. Weather courtesy of forecast.io.

Current aviation weather report (METAR) for Alverca Air Base

Report is more than 2 hours old.

Retrieved 2020/11/30 13:00 UTC (4 hours ago):

LPAR 301300Z 05006KT 9999 VCSH FEW012 16/13 Q1018

Aviation forecast (TAF) for Alverca Air Base

Forecast is more than 12 hours old.

Retrieved 2020/11/23 15:00 UTC (7 days ago):

TAF LPAR 231403Z 2315/2324 07008KT 9999 FEW030 BECMG 2312/2314 VRB02KT